Gravel Ridge, Arkansas
Current Conditions -  °F | °C
As of 10:58 AM on Friday 24 Oct 2014 (Local Time) from KLRF Reporting Station
Clear Clear  
Wind Chill: 64°   Ceiling: Unl
Heat Index: 64°   Visibility: 10mi
Dew Point: 52°   Wind: 3mph
Humidity: 65%   Direction: NA
Pressure: 30.17"   Gusts: NA
Location:  34.9092°N, 92.1561°W
Report Text: KLRF 241558Z AUTO VRB03KT 10SM CLR 18/11 A3017 RMK AO2 SLP219 T01770111
Loading
Personal Weather Stations






























Interactive Weather Map
Tropical Storm Tracking
New forecast layout! Learn more

10-Day Weather Forecast

Advertisements
Track Severe Weather on mobile